Time;durP1;ratioP1;P1;durP2;ratioP2;P2;SDS_P1;SDS_P2;PMS_P1;PMS_P2;Temp;Humidity;BMP_temperature;BMP_pressure;BME280_temperature;BME280_humidity;BME280_pressure;Samples;Min_cycle;Max_cycle;Signal;HPM_P1;HPM_P2
2022/01/24 00:00:40;;;;;;;0.20;0.20;;;;;;;-0.20;46.74;95803.03;5092596;28;21041;-53
2022/01/24 00:03:09;;;;;;;0.20;0.20;;;;;;;-2.01;41.47;95607.06;5092299;28;20464;-53
2022/01/24 00:05:40;;;;;;;0.20;0.20;;;;;;;-0.46;49.63;95808.09;5092705;28;20792;-54
2022/01/24 00:08:09;;;;;;;0.20;0.20;;;;;;;-0.29;47.72;95817.22;5092803;28;20486;-53
2022/01/24 00:10:39;;;;;;;0.20;0.20;;;;;;;-0.73;56.86;95775.81;5092532;28;20475;-53
2022/01/24 00:16:12;;;;;;;0.20;0.10;;;;;;;-2.65;44.85;95822.28;5090238;28;20436;-53
2022/01/24 00:27:28;;;;;;;0.83;0.83;;;;;;;-3.71;49.10;95703.19;5092569;28;20424;-53
2022/01/24 00:29:58;;;;;;;0.20;0.17;;;;;;;-1.81;56.22;95828.06;5090114;28;20925;-53
2022/01/24 00:32:27;;;;;;;0.20;0.20;;;;;;;-2.11;53.64;95817.69;5092215;28;20482;-52
2022/01/24 00:34:55;;;;;;;0.20;0.10;;;;;;;-3.93;51.96;95604.66;5092132;28;20486;-53
2022/01/24 00:37:26;;;;;;;0.30;0.20;;;;;;;-2.89;52.28;95723.94;5092241;28;20458;-53
2022/01/24 00:40:13;;;;;;;0.20;0.17;;;;;;;-2.65;52.60;95829.25;5092013;28;20476;-53
2022/01/24 00:42:52;;;;;;;0.20;0.20;;;;;;;-2.53;54.46;95827.06;5092244;28;20921;-53
2022/01/24 00:45:36;;;;;;;0.20;0.20;;;;;;;-2.11;52.62;95822.91;5091236;28;20444;-54
2022/01/24 00:54:42;;;;;;;0.40;0.40;;;;;;;-2.78;49.71;95824.66;5095113;28;20971;-54
2022/01/24 00:56:54;;;;;;;0.20;0.20;;;;;;;-3.77;50.24;95703.91;5095905;28;20468;-54
2022/01/24 00:59:23;;;;;;;0.20;0.10;;;;;;;-2.38;54.20;95820.09;5096085;28;20485;-54
2022/01/24 01:01:53;;;;;;;0.20;0.20;;;;;;;-2.11;51.38;95830.69;5095799;28;20975;-54
2022/01/24 01:04:27;;;;;;;0.20;0.20;;;;;;;-1.80;59.30;95830.50;5056022;28;20435;-54
2022/01/24 01:07:18;;;;;;;0.20;0.20;;;;;;;-0.88;60.52;95841.94;5055523;28;20499;-53
2022/01/24 01:18:16;;;;;;;0.20;0.20;;;;;;;-1.58;51.36;95837.38;5055049;28;20437;-54
2022/01/24 01:21:08;;;;;;;0.30;0.30;;;;;;;-2.22;46.18;95835.50;5055189;28;20516;-53
2022/01/24 01:23:56;;;;;;;1.30;0.93;;;;;;;-1.48;50.16;95840.50;5055161;28;20865;-53
2022/01/24 01:26:32;;;;;;;0.20;0.20;;;;;;;-2.31;46.91;95839.97;5053948;28;20425;-53
2022/01/24 01:29:15;;;;;;;0.20;0.20;;;;;;;-2.42;54.47;95804.06;5055558;28;20426;-53
2022/01/24 01:38:14;;;;;;;0.20;0.10;;;;;;;-1.35;55.99;95799.06;5049940;28;20469;-54
2022/01/24 01:57:28;;;;;;;0.20;0.10;;;;;;;-2.43;48.81;95640.75;5053862;28;20526;-54
2022/01/24 01:59:56;;;;;;;0.20;0.20;;;;;;;-1.60;43.24;95822.97;5054582;28;20425;-54
2022/01/24 02:02:25;;;;;;;0.20;0.20;;;;;;;-1.99;43.10;95831.03;5062854;28;20556;-55
2022/01/24 02:04:54;;;;;;;0.20;0.20;;;;;;;-1.90;45.02;95829.97;5094598;28;20463;-54
2022/01/24 02:07:23;;;;;;;0.20;0.20;;;;;;;-1.45;44.82;95828.94;5095094;28;20440;-54
2022/01/24 02:09:52;;;;;;;0.20;0.20;;;;;;;-1.86;43.71;95836.41;5094571;28;20486;-54
2022/01/24 02:12:25;;;;;;;0.20;0.20;;;;;;;-1.56;50.89;95832.00;5094998;28;20887;-54
2022/01/24 02:14:58;;;;;;;0.50;0.50;;;;;;;-2.07;47.21;95786.97;5093375;28;20432;-54
2022/01/24 02:17:38;;;;;;;0.20;0.20;;;;;;;-2.31;43.56;95792.44;5094714;28;20442;-54
2022/01/24 02:25:46;;;;;;;0.20;0.13;;;;;;;-1.43;43.06;95830.38;5093680;28;20944;-54
2022/01/24 02:28:17;;;;;;;0.20;0.20;;;;;;;-1.38;43.00;95835.81;5094505;28;20470;-54
2022/01/24 02:31:16;;;;;;;0.40;0.40;;;;;;;-1.59;41.90;95842.75;5094291;28;20857;-54
2022/01/24 02:33:48;;;;;;;0.20;0.20;;;;;;;-0.91;55.90;95852.75;5093865;28;20441;-54
2022/01/24 02:36:29;;;;;;;0.20;0.20;;;;;;;-0.71;43.06;95846.69;5094489;28;20497;-54
2022/01/24 02:39:08;;;;;;;0.20;0.20;;;;;;;-1.38;42.71;95846.22;5093973;28;20428;-54
2022/01/24 02:50:31;;;;;;;0.20;0.20;;;;;;;-1.65;43.20;95872.88;5094166;28;20491;-55
2022/01/24 02:52:59;;;;;;;0.20;0.20;;;;;;;-2.11;45.34;95874.84;5093972;28;20932;-55
2022/01/24 02:55:40;;;;;;;2.27;1.90;;;;;;;-2.76;48.51;95874.56;5093690;28;20440;-53
2022/01/24 02:58:09;;;;;;;0.20;0.20;;;;;;;-2.38;48.48;95896.19;5093918;28;20432;-54
2022/01/24 03:00:38;;;;;;;0.73;0.73;;;;;;;-2.71;48.61;95889.63;5093686;28;20456;-53
2022/01/24 03:03:07;;;;;;;0.20;0.10;;;;;;;-2.61;47.94;95877.22;5093227;28;20491;-54
2022/01/24 03:05:36;;;;;;;0.20;0.20;;;;;;;-2.51;49.78;95887.38;5092870;28;20820;-54
2022/01/24 03:08:06;;;;;;;0.20;0.20;;;;;;;-2.68;48.97;95920.38;5093405;28;20468;-53
2022/01/24 03:10:38;;;;;;;0.20;0.20;;;;;;;-2.33;49.88;95916.41;5092595;28;20485;-54
2022/01/24 03:16:13;;;;;;;0.20;0.20;;;;;;;-2.40;49.53;95920.69;5093237;28;21238;-54
2022/01/24 03:18:42;;;;;;;2.13;2.00;;;;;;;-2.03;48.71;95929.28;5092813;28;20472;-54
2022/01/24 03:21:13;;;;;;;0.20;0.10;;;;;;;-1.89;48.86;95934.66;5093225;28;20432;-54
2022/01/24 03:23:41;;;;;;;0.20;0.20;;;;;;;-1.22;48.95;95930.22;5093484;28;20508;-54
2022/01/24 03:26:10;;;;;;;0.20;0.20;;;;;;;-0.93;47.60;95911.94;5093111;28;20428;-54
2022/01/24 03:28:40;;;;;;;0.33;0.33;;;;;;;-1.20;47.04;95936.03;5093406;28;20421;-54
2022/01/24 03:31:08;;;;;;;0.20;0.20;;;;;;;-1.26;47.88;95916.75;5093016;28;20452;-54
2022/01/24 03:33:38;;;;;;;0.20;0.20;;;;;;;-0.56;55.66;95935.16;5092915;28;20432;-54
2022/01/24 03:36:07;;;;;;;0.20;0.20;;;;;;;-1.05;50.97;95932.41;5092718;28;20435;-54
2022/01/24 03:38:36;;;;;;;0.30;0.30;;;;;;;-1.21;50.15;95943.03;5093101;28;20424;-54
2022/01/24 03:41:06;;;;;;;0.40;0.40;;;;;;;-2.79;49.08;95957.94;5092958;28;20456;-54
2022/01/24 03:43:34;;;;;;;0.43;0.43;;;;;;;-2.66;51.36;95958.16;5092560;28;20429;-54
2022/01/24 03:46:24;;;;;;;0.20;0.20;;;;;;;-3.40;51.21;95944.94;5092417;28;20467;-54
2022/01/24 03:49:07;;;;;;;0.77;0.73;;;;;;;-2.54;53.28;95956.00;5092573;28;20456;-53
2022/01/24 03:51:44;;;;;;;0.20;0.20;;;;;;;-2.69;51.82;95963.72;5091607;28;20436;-53
2022/01/24 03:54:12;;;;;;;0.80;0.43;;;;;;;-2.70;54.45;95962.09;5092494;28;20453;-53
2022/01/24 03:56:41;;;;;;;0.20;0.20;;;;;;;-3.43;58.15;95929.72;5091895;28;20429;-53
2022/01/24 03:59:09;;;;;;;0.20;0.10;;;;;;;-3.38;52.71;95963.72;5092128;28;20998;-55
2022/01/24 04:01:40;;;;;;;0.30;0.20;;;;;;;-3.00;56.00;95965.50;5091663;28;20518;-54
2022/01/24 04:04:10;;;;;;;0.40;0.40;;;;;;;-2.92;51.70;95962.88;5092137;28;20460;-53
2022/01/24 04:06:40;;;;;;;0.20;0.20;;;;;;;-3.22;52.97;95966.25;5092362;28;20475;-53
2022/01/24 04:09:10;;;;;;;0.67;0.67;;;;;;;-3.25;54.34;95972.59;5092553;28;20436;-53
2022/01/24 04:11:40;;;;;;;1.53;1.53;;;;;;;-3.12;54.40;95982.41;5092317;28;20428;-53
2022/01/24 04:14:27;;;;;;;0.97;0.97;;;;;;;-3.39;52.50;95973.25;5092487;28;20424;-53
2022/01/24 04:17:23;;;;;;;0.20;0.20;;;;;;;-2.96;60.81;95984.91;5092141;28;20505;-54
2022/01/24 04:22:48;;;;;;;0.53;0.53;;;;;;;-3.11;52.03;95980.63;5091661;28;20515;-54
2022/01/24 04:25:23;;;;;;;0.20;0.20;;;;;;;-2.51;61.00;95952.25;5091957;28;20432;-54
2022/01/24 04:27:56;;;;;;;0.40;0.40;;;;;;;-2.81;52.49;95985.81;5092033;28;20456;-54
2022/01/24 04:30:43;;;;;;;0.20;0.10;;;;;;;-4.01;53.10;95943.81;5091955;28;20440;-54
2022/01/24 04:33:13;;;;;;;0.60;0.23;;;;;;;-3.49;54.92;95977.84;5091816;28;20500;-54
2022/01/24 04:35:42;;;;;;;0.20;0.20;;;;;;;-3.31;58.40;95985.38;5091830;28;20429;-54
2022/01/24 04:38:11;;;;;;;0.30;0.20;;;;;;;-3.02;53.89;95988.19;5091840;28;20484;-54
2022/01/24 04:40:42;;;;;;;2.10;2.10;;;;;;;-3.89;53.83;95990.88;5092079;28;20432;-54
2022/01/24 04:43:28;;;;;;;0.30;0.20;;;;;;;-3.60;51.54;95991.16;5091741;28;20464;-54
2022/01/24 04:46:11;;;;;;;0.20;0.20;;;;;;;-3.21;50.89;95984.22;5091314;28;20420;-53
2022/01/24 04:51:38;;;;;;;0.93;0.93;;;;;;;-3.34;50.37;95990.94;5091850;28;20458;-53
2022/01/24 04:56:49;;;;;;;0.20;0.20;;;;;;;-3.46;49.97;95987.06;5089089;28;20777;-53
2022/01/24 04:59:19;;;;;;;0.30;0.23;;;;;;;-3.58;50.97;95991.78;5092116;28;20420;-53
2022/01/24 05:01:47;;;;;;;0.20;0.20;;;;;;;-3.68;51.17;95996.34;5091810;28;20511;-53
2022/01/24 05:04:18;;;;;;;1.33;1.33;;;;;;;-4.17;51.12;95928.28;5091276;28;20510;-53
2022/01/24 05:06:47;;;;;;;0.20;0.20;;;;;;;-3.77;51.74;95992.16;5091578;28;20773;-54
2022/01/24 05:09:17;;;;;;;0.30;0.20;;;;;;;-3.91;51.57;96001.41;5091933;28;20840;-54
2022/01/24 05:11:50;;;;;;;0.20;0.20;;;;;;;-5.61;53.93;95746.38;5091921;28;20421;-53
2022/01/24 05:25:42;;;;;;;0.20;0.10;;;;;;;-5.40;52.00;95757.06;5091426;28;20470;-54
2022/01/24 05:28:10;;;;;;;0.40;0.40;;;;;;;-4.41;53.74;96013.69;5091603;28;20497;-53
2022/01/24 05:30:39;;;;;;;0.20;0.20;;;;;;;-4.31;53.92;96016.94;5091266;28;20424;-54
2022/01/24 05:33:07;;;;;;;0.20;0.20;;;;;;;-4.00;53.53;96007.53;5091593;28;20459;-53
2022/01/24 05:35:38;;;;;;;0.20;0.20;;;;;;;-3.58;52.12;96022.06;5091397;28;20409;-54
2022/01/24 05:38:07;;;;;;;0.20;0.20;;;;;;;-3.78;51.87;96023.41;5094553;28;20482;-52
2022/01/24 05:40:40;;;;;;;0.20;0.10;;;;;;;-3.40;51.48;96020.09;5094995;28;20900;-53
2022/01/24 05:43:09;;;;;;;1.27;1.27;;;;;;;-3.74;51.72;96025.47;5094851;28;20487;-53
2022/01/24 05:45:38;;;;;;;0.20;0.10;;;;;;;-3.77;51.99;96027.59;5095231;28;20509;-54
2022/01/24 05:48:07;;;;;;;0.20;0.20;;;;;;;-3.69;50.30;96004.28;5094675;28;20424;-53
2022/01/24 05:50:39;;;;;;;0.20;0.10;;;;;;;-3.12;49.85;96047.22;5094540;28;20466;-53
2022/01/24 05:53:08;;;;;;;0.20;0.20;;;;;;;-2.97;49.79;96052.50;5095076;28;20848;-53
2022/01/24 05:55:49;;;;;;;0.20;0.20;;;;;;;-3.40;49.75;96087.47;5094479;28;20440;-54
2022/01/24 05:58:17;;;;;;;0.20;0.20;;;;;;;-3.12;49.62;96067.16;5094671;28;20450;-53
2022/01/24 06:00:46;;;;;;;0.20;0.20;;;;;;;-3.55;50.57;96021.75;5094613;28;20464;-53
2022/01/24 06:03:15;;;;;;;0.27;0.27;;;;;;;-2.81;50.45;96063.63;5094060;28;21043;-53
2022/01/24 06:05:45;;;;;;;0.20;0.20;;;;;;;-3.05;50.28;96084.47;5094386;28;20439;-53
2022/01/24 06:08:15;;;;;;;0.20;0.17;;;;;;;-2.76;61.61;96082.09;5094679;28;20440;-56
2022/01/24 06:10:45;;;;;;;0.40;0.40;;;;;;;-2.94;55.17;96071.16;5094529;28;20433;-53
2022/01/24 06:13:13;;;;;;;0.20;0.10;;;;;;;-3.97;52.99;96079.72;5094379;28;20437;-53
2022/01/24 06:15:42;;;;;;;1.47;0.90;;;;;;;-3.26;64.48;96053.91;5094635;28;20440;-53
2022/01/24 06:18:11;;;;;;;1.03;1.03;;;;;;;-3.42;53.07;96084.22;5094364;28;21073;-53
2022/01/24 06:21:01;;;;;;;0.20;0.20;;;;;;;-4.07;54.15;96086.00;5094125;28;20519;-53
2022/01/24 06:23:29;;;;;;;1.07;1.07;;;;;;;-3.16;57.76;96090.00;5094206;28;20522;-53
2022/01/24 06:25:58;;;;;;;1.03;0.67;;;;;;;-2.58;50.99;96095.63;5094219;28;21013;-53
2022/01/24 06:28:27;;;;;;;0.20;0.20;;;;;;;-3.54;49.73;95959.38;5094132;28;20460;-53
2022/01/24 06:30:55;;;;;;;1.33;1.23;;;;;;;-2.61;49.19;96101.16;5093521;28;20460;-53
2022/01/24 06:33:45;;;;;;;0.40;0.40;;;;;;;-2.58;48.32;96080.06;5094020;28;20523;-53
2022/01/24 06:36:15;;;;;;;5.10;2.27;;;;;;;-3.16;49.65;96097.78;5094004;28;20437;-53
2022/01/24 06:38:44;;;;;;;0.30;0.20;;;;;;;-2.97;49.06;96094.81;5094087;28;20428;-53
2022/01/24 06:41:12;;;;;;;0.20;0.20;;;;;;;-3.18;50.67;96102.31;5093845;28;20839;-53
2022/01/24 06:43:41;;;;;;;0.30;0.20;;;;;;;-3.03;50.05;96103.25;5093925;28;20499;-53
2022/01/24 06:46:09;;;;;;;0.20;0.20;;;;;;;-3.18;50.58;96102.31;5093870;28;20428;-52
2022/01/24 06:48:38;;;;;;;0.20;0.20;;;;;;;-2.63;49.30;96108.31;5092597;28;20433;-52
2022/01/24 06:51:10;;;;;;;0.20;0.20;;;;;;;-3.12;49.82;96116.41;5094031;28;20497;-53
2022/01/24 06:53:41;;;;;;;0.20;0.10;;;;;;;-2.62;49.49;96122.91;5094022;28;20870;-53
2022/01/24 06:56:12;;;;;;;0.20;0.20;;;;;;;-2.98;48.75;96118.31;5092933;28;21002;-54
2022/01/24 06:58:40;;;;;;;0.20;0.20;;;;;;;-2.62;53.10;96065.00;5093465;28;20513;-53
2022/01/24 07:01:10;;;;;;;0.20;0.13;;;;;;;-1.51;47.51;96115.56;5093476;28;20424;-52
2022/01/24 07:03:40;;;;;;;0.20;0.20;;;;;;;-1.04;46.13;96120.53;5093076;28;20476;-52
2022/01/24 07:06:09;;;;;;;0.20;0.20;;;;;;;-1.35;45.71;96051.25;5093438;28;20417;-52
2022/01/24 07:08:38;;;;;;;0.20;0.20;;;;;;;-1.47;45.38;96044.84;5093231;28;20437;-52
2022/01/24 07:11:09;;;;;;;0.77;0.77;;;;;;;-0.76;45.46;96126.75;5093531;28;20455;-53
2022/01/24 07:13:38;;;;;;;0.30;0.27;;;;;;;-0.04;46.17;96123.25;5093102;28;20440;-53
2022/01/24 07:16:07;;;;;;;0.63;0.63;;;;;;;0.33;42.57;96113.59;5093211;28;20460;-53
2022/01/24 07:21:23;;;;;;;0.20;0.20;;;;;;;1.46;39.70;96122.88;5093253;28;20448;-54
2022/01/24 07:23:52;;;;;;;0.30;0.23;;;;;;;1.34;39.96;96113.16;5093259;28;20525;-54
2022/01/24 07:26:23;;;;;;;0.47;0.47;;;;;;;1.33;39.52;96112.34;5093052;28;20920;-54
2022/01/24 07:28:51;;;;;;;0.30;0.20;;;;;;;2.61;40.29;96117.63;5092908;28;20802;-54
2022/01/24 07:31:20;;;;;;;0.30;0.20;;;;;;;2.72;37.92;96111.78;5093167;28;20436;-53
2022/01/24 07:33:51;;;;;;;0.30;0.20;;;;;;;3.27;39.00;96113.97;5093054;28;20494;-53
2022/01/24 07:36:21;;;;;;;0.30;0.20;;;;;;;3.55;38.41;96111.88;5092741;28;20425;-52
2022/01/24 07:38:51;;;;;;;0.50;0.50;;;;;;;2.85;35.72;96098.69;5092594;28;20412;-52
2022/01/24 07:41:24;;;;;;;0.30;0.20;;;;;;;2.92;35.16;96052.38;5092464;28;20429;-52
2022/01/24 07:43:55;;;;;;;0.63;0.63;;;;;;;2.70;34.30;96108.56;5092437;28;20464;-52
2022/01/24 07:46:24;;;;;;;0.30;0.20;;;;;;;3.33;42.61;96118.41;5092724;28;20432;-51
2022/01/24 07:48:53;;;;;;;0.40;0.40;;;;;;;3.90;33.60;96101.88;5092401;28;20435;-51
2022/01/24 07:51:21;;;;;;;0.30;0.20;;;;;;;3.74;32.83;96115.47;5092196;28;20515;-51
2022/01/24 07:53:53;;;;;;;0.30;0.20;;;;;;;4.11;33.53;96119.94;5092313;28;20486;-51
2022/01/24 07:56:22;;;;;;;0.40;0.30;;;;;;;3.72;31.88;96110.41;5092138;28;20439;-51
2022/01/24 07:58:51;;;;;;;0.40;0.30;;;;;;;3.25;34.65;96109.94;5092221;28;20421;-51
2022/01/24 08:01:21;;;;;;;0.30;0.20;;;;;;;2.66;34.40;96117.84;5092057;28;20516;-51
2022/01/24 08:03:53;;;;;;;0.57;0.57;;;;;;;1.88;34.32;95975.47;5091519;28;20480;-52
2022/01/24 08:06:24;;;;;;;0.33;0.27;;;;;;;3.79;36.33;96056.13;5091910;28;20417;-52
2022/01/24 08:08:52;;;;;;;0.40;0.30;;;;;;;3.27;31.86;96115.78;5092065;28;20463;-52
2022/01/24 08:11:22;;;;;;;0.30;0.20;;;;;;;4.09;34.38;96121.19;5092354;28;20516;-52
2022/01/24 08:13:51;;;;;;;0.30;0.20;;;;;;;3.45;32.08;96101.03;5091924;28;20420;-52
2022/01/24 08:16:23;;;;;;;0.30;0.23;;;;;;;4.35;32.18;96118.44;5092009;28;20425;-52
2022/01/24 08:18:52;;;;;;;0.77;0.77;;;;;;;3.93;30.69;96103.28;5092289;28;20454;-52
2022/01/24 08:21:21;;;;;;;0.50;0.50;;;;;;;3.97;31.61;96122.84;5091605;28;20447;-52
2022/01/24 08:23:51;;;;;;;0.30;0.30;;;;;;;4.29;30.17;96127.13;5091721;28;20464;-55
2022/01/24 08:26:21;;;;;;;0.43;0.43;;;;;;;4.01;34.98;95925.50;5091845;28;20429;-59
2022/01/24 08:28:49;;;;;;;0.40;0.30;;;;;;;5.91;28.35;96131.25;5091915;28;20432;-60
2022/01/24 08:31:18;;;;;;;0.40;0.30;;;;;;;5.97;28.05;96066.44;5091837;28;20928;-61
2022/01/24 08:33:48;;;;;;;0.50;0.50;;;;;;;5.44;32.25;96137.19;5092051;28;20912;-62
2022/01/24 08:36:18;;;;;;;3.50;0.30;;;;;;;4.55;27.98;96131.44;5092035;28;20435;-63
2022/01/24 08:38:49;;;;;;;0.30;0.23;;;;;;;4.58;31.31;96138.88;5091739;28;20928;-64
2022/01/24 08:41:25;;;;;;;0.53;0.53;;;;;;;6.20;29.97;96127.03;5092010;28;20443;-66
2022/01/24 08:43:59;;;;;;;0.40;0.30;;;;;;;4.25;29.95;96133.81;5091578;28;20428;-65
2022/01/24 08:46:28;;;;;;;0.30;0.20;;;;;;;4.68;29.24;96103.25;5091547;28;20424;-69
2022/01/24 08:48:58;;;;;;;0.40;0.37;;;;;;;4.59;30.05;96141.28;5092012;28;20505;-69
2022/01/24 08:51:26;;;;;;;0.50;0.50;;;;;;;6.09;28.59;96122.53;5091947;28;20817;-65
2022/01/24 08:54:10;;;;;;;0.40;0.40;;;;;;;7.17;25.40;96137.19;5092675;28;20969;-70
2022/01/24 08:56:39;;;;;;;0.30;0.20;;;;;;;6.38;25.94;96143.63;5091801;28;20432;-55
2022/01/24 08:59:11;;;;;;;0.30;0.23;;;;;;;6.92;26.62;96128.69;5091974;28;20936;-57
2022/01/24 09:01:40;;;;;;;0.40;0.30;;;;;;;6.81;25.30;96145.25;5091842;28;20428;-57
2022/01/24 09:04:10;;;;;;;0.30;0.20;;;;;;;7.37;26.02;96157.97;5091449;28;20478;-57
2022/01/24 09:06:39;;;;;;;0.43;0.40;;;;;;;6.42;24.89;96138.72;5091912;28;20513;-57
2022/01/24 09:09:08;;;;;;;0.40;0.30;;;;;;;6.26;25.10;96152.50;5091579;28;20428;-55
2022/01/24 09:11:37;;;;;;;0.40;0.27;;;;;;;5.17;26.94;96138.44;5092556;28;20924;-56
2022/01/24 09:14:07;;;;;;;0.37;0.30;;;;;;;5.00;26.43;96151.31;5094716;28;20432;-55
2022/01/24 09:16:38;;;;;;;0.30;0.30;;;;;;;4.44;29.29;96088.28;5094760;28;20500;-55
2022/01/24 09:19:13;;;;;;;0.30;0.23;;;;;;;4.39;27.61;96138.78;5095560;28;20420;-56
2022/01/24 09:21:42;;;;;;;0.57;0.57;;;;;;;3.42;29.13;96164.31;5095391;28;20454;-58
2022/01/24 09:24:11;;;;;;;0.30;0.23;;;;;;;3.90;28.45;96166.66;5094055;28;20523;-58
2022/01/24 09:26:39;;;;;;;0.30;0.20;;;;;;;4.40;27.98;96174.50;5093029;28;20432;-58
2022/01/24 09:29:08;;;;;;;0.40;0.30;;;;;;;6.08;28.57;96165.66;5093571;28;20470;-58
2022/01/24 09:31:38;;;;;;;0.63;0.63;;;;;;;5.40;27.47;96160.47;5094170;28;20436;-57
2022/01/24 09:34:10;;;;;;;0.37;0.30;;;;;;;4.03;27.98;96156.09;5094522;28;20507;-57
2022/01/24 09:36:38;;;;;;;0.40;0.30;;;;;;;6.12;28.20;96154.47;5094237;28;21199;-56
2022/01/24 09:39:07;;;;;;;0.30;0.30;;;;;;;5.76;36.23;96150.00;5094590;28;20519;-57
2022/01/24 09:41:54;;;;;;;0.73;0.73;;;;;;;4.32;28.19;96145.91;5094810;28;20484;-58
2022/01/24 09:44:43;;;;;;;1.07;0.50;;;;;;;3.16;28.35;96104.13;5094069;28;20578;-58
2022/01/24 09:47:15;;;;;;;0.50;0.50;;;;;;;5.22;36.87;96144.66;5094846;28;20452;-57
2022/01/24 09:49:48;;;;;;;0.30;0.20;;;;;;;4.40;27.82;96150.09;5095134;28;20866;-58
2022/01/24 09:52:16;;;;;;;0.30;0.20;;;;;;;2.65;33.17;96143.19;5094791;28;20424;-58
2022/01/24 09:54:45;;;;;;;0.40;0.30;;;;;;;2.31;31.58;96156.38;5095099;28;20451;-56
2022/01/24 09:57:14;;;;;;;0.43;0.43;;;;;;;2.15;31.13;96141.06;5094816;28;20421;-55
2022/01/24 09:59:42;;;;;;;0.30;0.20;;;;;;;2.15;32.68;96147.09;5095012;28;20428;-55
2022/01/24 10:02:11;;;;;;;0.33;0.27;;;;;;;1.66;30.68;96102.06;5094613;28;20412;-54
2022/01/24 10:04:40;;;;;;;0.30;0.20;;;;;;;2.59;31.27;96049.78;5094515;28;20459;-54
2022/01/24 10:07:12;;;;;;;1.60;0.50;;;;;;;2.91;29.29;96142.41;5094065;28;20439;-53
2022/01/24 10:09:44;;;;;;;0.40;0.30;;;;;;;2.68;30.04;96149.84;5094445;28;20944;-53
2022/01/24 10:12:31;;;;;;;0.30;0.20;;;;;;;2.89;29.60;96147.03;5094160;28;20506;-53
2022/01/24 10:18:02;;;;;;;0.60;0.60;;;;;;;3.74;29.75;96139.06;5094646;28;20486;-53
2022/01/24 10:20:33;;;;;;;0.70;0.70;;;;;;;4.89;34.06;96121.28;5094231;28;20498;-53
2022/01/24 10:23:07;;;;;;;0.30;0.20;;;;;;;3.69;28.20;96137.03;5094384;28;20452;-52
2022/01/24 10:25:59;;;;;;;0.30;0.20;;;;;;;4.07;28.24;96141.56;5094089;28;20465;-53
2022/01/24 10:28:31;;;;;;;0.80;0.80;;;;;;;2.68;27.99;96144.59;5094314;28;20512;-53
2022/01/24 10:31:07;;;;;;;0.30;0.20;;;;;;;3.00;27.17;96135.94;5093937;28;20429;-53
2022/01/24 10:33:59;;;;;;;0.30;0.20;;;;;;;3.62;27.47;96131.00;5094090;28;20927;-53
2022/01/24 10:36:35;;;;;;;0.30;0.20;;;;;;;2.74;28.61;96134.13;5093807;28;20515;-53
2022/01/24 10:39:15;;;;;;;0.30;0.20;;;;;;;4.08;30.28;96137.91;5094100;28;20850;-53
2022/01/24 10:42:21;;;;;;;0.30;0.20;;;;;;;2.78;29.39;96108.38;5093794;28;20440;-53
2022/01/24 10:44:50;;;;;;;0.50;0.47;;;;;;;1.54;29.52;95915.53;5093821;28;20448;-53
2022/01/24 10:47:22;;;;;;;1.23;0.43;;;;;;;2.38;30.08;96147.56;5093762;28;20494;-54
2022/01/24 10:49:52;;;;;;;0.30;0.20;;;;;;;3.84;31.89;96142.84;5093506;28;20482;-53
2022/01/24 10:52:23;;;;;;;0.30;0.30;;;;;;;3.56;27.95;96134.47;5093014;28;20468;-53
2022/01/24 10:54:56;;;;;;;0.30;0.20;;;;;;;2.77;27.53;96132.91;5093229;28;20432;-54
2022/01/24 10:57:27;;;;;;;0.30;0.20;;;;;;;2.48;27.82;96145.34;5092936;28;20981;-54
2022/01/24 11:00:08;;;;;;;0.30;0.20;;;;;;;2.60;26.41;95965.03;5093404;28;20456;-53
2022/01/24 11:02:40;;;;;;;0.40;0.30;;;;;;;4.79;25.43;96126.19;5093175;28;20509;-52
2022/01/24 11:05:15;;;;;;;0.53;0.53;;;;;;;5.35;25.12;96123.50;5092659;28;20440;-52
2022/01/24 11:08:09;;;;;;;0.30;0.20;;;;;;;3.36;24.93;95999.28;5093512;28;20417;-53
2022/01/24 11:10:41;;;;;;;0.40;0.30;;;;;;;4.58;25.44;96129.16;5092509;28;20515;-51
2022/01/24 11:13:12;;;;;;;0.40;0.40;;;;;;;4.97;26.50;96118.38;5093234;28;20417;-52
2022/01/24 11:15:46;;;;;;;0.30;0.20;;;;;;;4.14;26.81;96129.22;5092831;28;20486;-52
2022/01/24 11:18:18;;;;;;;0.30;0.20;;;;;;;3.71;28.67;96121.13;5093143;28;20904;-52
2022/01/24 11:20:46;;;;;;;0.30;0.20;;;;;;;3.13;29.56;96135.94;5092955;28;20713;-53
2022/01/24 11:23:20;;;;;;;0.30;0.30;;;;;;;2.89;31.68;96126.88;5092931;28;20959;-53
2022/01/24 11:25:51;;;;;;;0.30;0.20;;;;;;;2.37;31.47;96139.91;5092628;28;20940;-54
2022/01/24 11:28:19;;;;;;;0.30;0.30;;;;;;;2.39;29.95;96136.09;5092678;28;20993;-54
2022/01/24 11:30:58;;;;;;;0.30;0.20;;;;;;;1.61;27.78;95911.13;5093198;28;20432;-54
2022/01/24 11:33:35;;;;;;;0.30;0.20;;;;;;;3.42;26.91;96106.66;5092759;28;20475;-53
2022/01/24 11:36:07;;;;;;;0.30;0.20;;;;;;;3.41;28.33;96125.22;5092536;28;20450;-53
2022/01/24 11:38:37;;;;;;;0.30;0.20;;;;;;;3.81;27.52;96126.72;5093226;28;20482;-53
2022/01/24 11:41:20;;;;;;;1.00;1.00;;;;;;;4.08;26.74;96120.38;5092727;28;20424;-52
2022/01/24 11:44:11;;;;;;;0.30;0.20;;;;;;;5.06;26.71;96111.03;5091363;28;20467;-53
2022/01/24 11:46:52;;;;;;;0.30;0.20;;;;;;;5.34;26.03;96087.72;5092703;28;20472;-52
2022/01/24 11:49:28;;;;;;;0.40;0.30;;;;;;;7.09;25.56;96108.53;5092673;28;20494;-52
2022/01/24 11:52:10;;;;;;;0.70;0.40;;;;;;;5.85;25.99;96111.06;5092562;28;20511;-52
2022/01/24 11:54:51;;;;;;;5.60;3.23;;;;;;;5.85;25.77;96097.94;5092485;28;20425;-53
2022/01/24 11:57:37;;;;;;;0.30;0.20;;;;;;;5.90;25.47;96113.84;5092439;28;20570;-53
2022/01/24 12:00:26;;;;;;;0.30;0.20;;;;;;;4.13;29.73;95933.47;5092431;28;20486;-54
2022/01/24 12:02:56;;;;;;;0.30;0.23;;;;;;;5.40;26.18;96125.50;5091972;28;20514;-53
2022/01/24 12:05:25;;;;;;;0.70;0.50;;;;;;;3.72;26.62;96134.00;5092245;28;20432;-53
2022/01/24 12:07:58;;;;;;;0.30;0.20;;;;;;;3.62;29.61;96120.53;5056350;28;20890;-53
2022/01/24 12:10:48;;;;;;;3.63;3.43;;;;;;;3.83;27.40;96129.94;5092063;28;20432;-52
2022/01/24 12:13:25;;;;;;;5.23;2.10;;;;;;;4.17;31.61;96147.19;5091986;28;20493;-52
2022/01/24 12:15:59;;;;;;;12.97;0.87;;;;;;;4.65;27.20;96127.31;5092179;28;20940;-52
2022/01/24 12:18:58;;;;;;;0.40;0.40;;;;;;;4.95;30.85;96132.75;5092494;28;20428;-52
2022/01/24 12:21:29;;;;;;;0.73;0.73;;;;;;;3.78;27.05;96143.69;5092022;28;20428;-52
2022/01/24 12:24:01;;;;;;;1.23;1.23;;;;;;;3.38;28.28;96123.81;5092001;28;20482;-53
2022/01/24 12:26:42;;;;;;;0.50;0.33;;;;;;;3.08;28.73;96136.56;5092121;28;20542;-54
2022/01/24 12:29:16;;;;;;;1.33;1.33;;;;;;;2.81;30.27;96144.63;5092013;28;20503;-53
2022/01/24 12:31:48;;;;;;;0.63;0.63;;;;;;;3.34;32.02;96140.16;5092162;28;20432;-52
2022/01/24 12:34:24;;;;;;;0.40;0.30;;;;;;;3.75;28.93;96138.84;5091918;28;20416;-51
2022/01/24 12:37:02;;;;;;;0.30;0.20;;;;;;;3.99;26.86;96131.31;5092101;28;20472;-52
2022/01/24 12:39:52;;;;;;;0.40;0.30;;;;;;;4.89;26.37;96123.91;5091436;28;20485;-51
2022/01/24 12:42:37;;;;;;;0.30;0.20;;;;;;;5.03;25.20;96122.78;5091805;28;20959;-53
2022/01/24 12:48:13;;;;;;;0.50;0.50;;;;;;;5.83;26.67;96125.44;5091176;28;20511;-53
2022/01/24 12:50:46;;;;;;;0.30;0.20;;;;;;;6.38;24.75;95985.66;5091749;28;20958;-53
2022/01/24 12:53:16;;;;;;;0.53;0.53;;;;;;;7.08;23.35;96125.41;5091843;28;20424;-53
2022/01/24 12:55:56;;;;;;;0.30;0.30;;;;;;;5.24;22.87;96023.56;5091707;28;20495;-54
2022/01/24 12:58:31;;;;;;;0.30;0.20;;;;;;;4.80;25.01;96129.63;5091727;28;20484;-53
2022/01/24 13:01:01;;;;;;;0.30;0.20;;;;;;;2.91;25.45;96064.66;5091481;28;20431;-56
2022/01/24 13:03:48;;;;;;;0.40;0.40;;;;;;;4.65;26.24;96137.00;5091219;28;20464;-54
2022/01/24 13:06:18;;;;;;;0.40;0.30;;;;;;;4.58;34.05;96131.00;5091404;28;20480;-54
2022/01/24 13:08:57;;;;;;;0.30;0.20;;;;;;;3.75;25.54;96146.72;5091460;28;20425;-53
2022/01/24 13:11:28;;;;;;;0.30;0.30;;;;;;;3.84;25.51;96152.56;5091574;28;20408;-54
2022/01/24 13:14:10;;;;;;;0.40;0.40;;;;;;;3.98;28.70;96130.50;5091470;28;20420;-54
2022/01/24 13:22:35;;;;;;;0.30;0.20;;;;;;;2.53;26.47;96155.22;5090509;28;20467;-54
2022/01/24 13:25:11;;;;;;;0.60;0.60;;;;;;;3.15;25.53;96136.53;5091464;28;20553;-54
2022/01/24 13:27:41;;;;;;;0.30;0.23;;;;;;;2.80;25.53;96143.00;5091395;28;20487;-54
2022/01/24 13:30:12;;;;;;;0.30;0.20;;;;;;;2.41;26.79;96155.00;5091237;28;20425;-54
2022/01/24 13:32:46;;;;;;;0.30;0.20;;;;;;;2.41;31.74;96169.91;5091313;28;20429;-54
2022/01/24 13:35:26;;;;;;;1.30;1.30;;;;;;;1.46;29.88;96111.63;5091174;28;20425;-54
2022/01/24 13:38:00;;;;;;;0.30;0.20;;;;;;;1.63;29.35;96120.75;5091080;28;20482;-54
2022/01/24 13:40:38;;;;;;;0.30;0.30;;;;;;;1.86;31.69;96134.31;5091513;28;20424;-54
2022/01/24 13:43:08;;;;;;;1.90;0.73;;;;;;;1.46;29.22;96103.78;5091092;28;20428;-53
2022/01/24 13:45:38;;;;;;;0.30;0.20;;;;;;;2.17;29.00;96167.81;5091130;28;20432;-53